Time;durP1;ratioP1;P1;durP2;ratioP2;P2;SDS_P1;SDS_P2;PMS_P1;PMS_P2;Temp;Humidity;BMP_temperature;BMP_pressure;BME280_temperature;BME280_humidity;BME280_pressure;Samples;Min_cycle;Max_cycle;Signal;HPM_P1;HPM_P2
2022/02/18 00:01:30;;;;;;;;;;;10.50;99.90;;;10.76;75.74;100925.28;5117325;28;19923;-77
2022/02/18 00:04:00;;;;;;;;;;;10.50;99.90;;;10.67;75.95;100918.25;5117568;28;19920;-77
2022/02/18 00:06:30;;;;;;;;;;;10.40;99.90;;;10.67;75.99;100915.63;5117183;28;20270;-76
2022/02/18 00:08:59;;;;;;;;;;;10.40;99.90;;;10.59;75.94;100898.00;5117201;27;19919;-78
2022/02/18 00:11:30;;;;;;;;;;;10.40;99.90;;;10.68;76.03;100909.44;5117205;27;20365;-82
2022/02/18 00:14:03;;;;;;;;;;;10.40;99.90;;;10.52;76.12;100862.78;5116990;28;20006;-74
2022/02/18 00:16:34;;;;;;;;;;;10.40;99.90;;;10.61;76.44;100891.84;5117226;28;19923;-77
2022/02/18 00:19:03;;;;;;;;;;;10.40;99.90;;;10.54;76.86;100950.94;5117379;28;19920;-80
2022/02/18 00:21:33;;;;;;;;;;;10.40;99.90;;;10.61;76.66;100877.72;5117178;28;19958;-80
2022/02/18 00:24:01;;;;;;;;;;;10.40;99.90;;;10.61;76.53;100872.44;5116856;28;19919;-80
2022/02/18 00:26:29;;;;;;;;;;;10.40;99.90;;;10.74;76.37;100879.44;5116708;28;19923;-80
2022/02/18 00:28:57;;;;;;;;;;;10.40;99.90;;;10.70;76.03;100881.19;5116808;28;20561;-80
2022/02/18 00:31:26;;;;;;;;;;;10.50;99.90;;;10.80;75.92;100876.78;5116015;28;19927;-80
2022/02/18 00:33:55;;;;;;;;;;;10.50;99.90;;;10.81;75.61;100865.28;5116988;28;19924;-80
2022/02/18 00:36:24;;;;;;;;;;;10.60;99.90;;;10.80;75.40;100876.78;5116988;28;19964;-80
2022/02/18 00:38:53;;;;;;;;;;;10.50;99.90;;;10.84;75.50;100866.16;5115595;28;20022;-80
2022/02/18 00:41:22;;;;;;;;;;;10.60;99.90;;;10.88;75.49;100861.72;5116619;28;19958;-79
2022/02/18 00:43:50;;;;;;;;;;;10.60;99.90;;;10.81;75.58;100860.88;5116825;28;19998;-80
2022/02/18 00:46:18;;;;;;;;;;;10.60;99.90;;;10.79;75.58;100859.13;5116470;28;19927;-80
2022/02/18 00:48:46;;;;;;;;;;;10.60;99.90;;;10.87;75.68;100860.84;5116442;28;19920;-80
2022/02/18 00:51:18;;;;;;;;;;;10.60;99.90;;;10.87;75.38;100860.84;5116613;28;19919;-80
2022/02/18 00:53:46;;;;;;;;;;;10.60;99.90;;;10.91;76.00;100856.41;5116405;28;19920;-80
2022/02/18 00:56:16;;;;;;;;;;;10.60;99.90;;;10.92;75.79;100854.66;5116506;28;20326;-80
2022/02/18 00:58:44;;;;;;;;;;;10.60;99.90;;;10.90;76.00;100838.75;5115287;28;19919;-80
2022/02/18 01:01:12;;;;;;;;;;;10.70;99.90;;;10.93;75.69;100854.63;5116483;28;19948;-80
2022/02/18 01:03:41;;;;;;;;;;;10.70;99.90;;;10.91;76.08;100853.78;5116483;28;19920;-80
2022/02/18 01:06:09;;;;;;;;;;;10.70;99.90;;;10.82;76.49;100843.22;5116086;28;19998;-80
2022/02/18 01:08:37;;;;;;;;;;;10.60;99.90;;;10.86;76.72;100850.25;5116399;28;19920;-80
2022/02/18 01:11:06;;;;;;;;;;;10.60;99.90;;;10.91;76.96;100845.84;5115992;27;20438;-80
2022/02/18 01:13:36;;;;;;;;;;;10.60;99.90;;;10.87;77.38;100834.41;5132132;27;19938;-80
2022/02/18 01:16:05;;;;;;;;;;;10.60;99.90;;;10.20;77.96;100747.50;5116259;28;19920;-80
2022/02/18 01:18:34;;;;;;;;;;;10.50;99.90;;;10.83;78.34;100832.66;5116148;28;19920;-80
2022/02/18 01:21:03;;;;;;;;;;;10.50;99.90;;;10.74;78.25;100818.59;5114875;28;19924;-80
2022/02/18 01:23:31;;;;;;;;;;;10.60;99.90;;;10.77;78.66;100823.88;5114780;28;19920;-80
2022/02/18 01:26:00;;;;;;;;;;;10.50;99.90;;;10.82;79.23;100827.34;5115861;28;20360;-80
2022/02/18 01:28:28;;;;;;;;;;;10.50;99.90;;;10.84;79.19;100828.22;5115987;28;20014;-80
2022/02/18 01:30:58;;;;;;;;;;;10.60;99.90;;;10.86;79.56;100819.38;5132003;27;19923;-80
2022/02/18 01:33:26;;;;;;;;;;;10.60;99.90;;;10.87;79.60;100814.97;5115683;28;20303;-80
2022/02/18 01:35:54;;;;;;;;;;;10.60;99.90;;;10.93;79.49;100811.41;5116025;28;19967;-80
2022/02/18 01:38:23;;;;;;;;;;;10.60;99.90;;;10.95;79.36;100804.34;5115691;28;19947;-80
2022/02/18 01:40:52;;;;;;;;;;;10.70;99.90;;;10.93;79.53;100803.47;5115951;28;19919;-80
2022/02/18 01:43:20;;;;;;;;;;;10.60;99.90;;;10.83;79.80;100789.44;5131479;27;19920;-80
2022/02/18 01:45:50;;;;;;;;;;;10.60;99.90;;;10.84;79.83;100781.47;5114364;28;19920;-80
2022/02/18 01:48:20;;;;;;;;;;;10.60;99.90;;;10.71;79.76;100758.66;5115450;28;19959;-80
2022/02/18 01:50:48;;;;;;;;;;;10.60;99.90;;;10.81;80.00;100760.34;5114092;28;19919;-80
2022/02/18 01:53:19;;;;;;;;;;;10.60;99.90;;;10.91;79.85;100769.09;5115509;28;20292;-80
2022/02/18 01:55:47;;;;;;;;;;;10.60;99.90;;;10.89;80.12;100765.56;5131207;27;19923;-80
2022/02/18 01:58:15;;;;;;;;;;;10.60;99.90;;;10.72;80.37;100755.09;5114333;28;19946;-80
2022/02/18 02:00:44;;;;;;;;;;;10.50;99.90;;;10.33;80.81;100665.50;5131174;27;19926;-80
2022/02/18 02:03:13;;;;;;;;;;;10.50;99.90;;;10.78;81.14;100733.91;5130919;27;20335;-80
2022/02/18 02:05:43;;;;;;;;;;;10.50;99.90;;;10.77;80.83;100728.63;5148310;27;19920;-80
2022/02/18 02:08:13;;;;;;;;;;;10.50;99.90;;;10.75;81.16;100727.75;5115146;28;19927;-80
2022/02/18 02:10:47;;;;;;;;;;;10.50;99.90;;;10.57;81.33;100723.47;5115076;28;20020;-80
2022/02/18 02:13:30;;;;;;;;;;;10.40;99.90;;;10.54;81.68;100696.19;5131094;27;19926;-80
2022/02/18 02:16:00;;;;;;;;;;;10.40;99.90;;;10.65;81.63;100705.78;5113825;28;19968;-80
2022/02/18 02:18:29;;;;;;;;;;;10.40;99.90;;;10.66;81.75;100696.97;5114646;28;19926;-80
2022/02/18 02:20:58;;;;;;;;;;;10.40;99.90;;;10.66;81.84;100688.16;5130770;27;19953;-80
2022/02/18 02:23:35;;;;;;;;;;;10.40;99.90;;;10.56;81.79;100667.94;5131028;27;20015;-80
2022/02/18 02:26:04;;;;;;;;;;;10.40;99.90;;;10.58;82.78;100675.00;5130742;27;20369;-80
2022/02/18 02:28:34;;;;;;;;;;;10.30;99.90;;;10.53;82.85;100670.63;5113461;28;20388;-80
2022/02/18 02:31:03;;;;;;;;;;;10.30;99.90;;;9.79;83.51;100539.84;5147704;27;19919;-80
2022/02/18 02:33:34;;;;;;;;;;;10.20;99.90;;;10.49;83.34;100634.53;5113470;28;20144;-80
2022/02/18 02:36:04;;;;;;;;;;;10.30;99.90;;;10.27;83.58;100586.22;5130550;27;19927;-80
2022/02/18 02:38:32;;;;;;;;;;;10.30;99.90;;;10.49;84.24;100634.53;5113146;28;20380;-80
2022/02/18 02:41:02;;;;;;;;;;;10.30;99.90;;;10.56;84.26;100644.16;5114314;28;19924;-80
2022/02/18 02:43:34;;;;;;;;;;;10.30;99.90;;;10.30;84.31;100586.19;5113433;28;19919;-80
2022/02/18 02:46:03;;;;;;;;;;;10.30;99.90;;;10.16;85.02;100550.19;5113216;28;19919;-80
2022/02/18 02:48:31;;;;;;;;;;;10.30;99.90;;;10.52;85.12;100608.03;5113143;28;19920;-80
2022/02/18 02:51:11;;;;;;;;;;;10.30;99.90;;;10.53;85.17;100584.22;5113376;28;19958;-80
2022/02/18 02:53:40;;;;;;;;;;;10.30;99.90;;;10.63;85.24;100596.47;5112832;28;19919;-80
2022/02/18 02:56:10;;;;;;;;;;;10.40;99.90;;;10.61;85.25;100570.94;5112615;28;20373;-80
2022/02/18 02:58:38;;;;;;;;;;;10.40;99.90;;;10.68;85.58;100577.94;5112996;28;19927;-79
2022/02/18 03:01:07;;;;;;;;;;;10.40;99.90;;;10.66;85.68;100563.84;5130150;27;20324;-80
2022/02/18 03:03:43;;;;;;;;;;;10.40;99.90;;;10.65;85.20;100546.22;5129640;27;20372;-80
2022/02/18 03:06:11;;;;;;;;;;;10.60;99.90;;;10.69;85.49;100545.28;5112635;28;19927;-80
2022/02/18 03:08:40;;;;;;;;;;;10.50;99.90;;;10.70;85.64;100536.47;5130010;27;20265;-80
2022/02/18 03:11:18;;;;;;;;;;;10.50;99.90;;;9.94;85.76;100402.38;5112927;28;19920;-80
2022/02/18 03:14:25;;;;;;;;;;;10.40;99.90;;;10.47;85.93;100497.03;5071146;28;20392;-80
2022/02/18 03:16:59;;;;;;;;;;;10.50;99.90;;;10.64;85.88;100507.44;5071153;28;19927;-80
2022/02/18 03:19:27;;;;;;;;;;;10.50;99.90;;;10.71;86.04;100517.94;5093013;28;19924;-80
2022/02/18 03:21:56;;;;;;;;;;;10.50;99.90;;;10.66;85.94;100503.91;5112793;28;19920;-80
2022/02/18 03:24:25;;;;;;;;;;;10.50;99.90;;;10.75;86.06;100497.63;5129982;28;19920;-80
2022/02/18 03:26:57;;;;;;;;;;;10.50;99.90;;;10.65;85.96;100483.63;5130058;28;19919;-80
2022/02/18 03:29:29;;;;;;;;;;;10.50;99.90;;;10.59;86.61;100472.22;5112872;28;20358;-80
2022/02/18 03:32:01;;;;;;;;;;;10.50;99.90;;;10.33;87.36;100443.44;5112682;28;19919;-80
2022/02/18 03:34:31;;;;;;;;;;;10.40;99.90;;;10.10;88.07;100426.94;5113947;28;19965;-80
2022/02/18 03:37:00;;;;;;;;;;;10.20;99.90;;;10.19;87.98;100423.31;5112709;28;19920;-80
2022/02/18 03:39:30;;;;;;;;;;;10.20;99.90;;;10.14;88.77;100418.09;5147344;27;19942;-80
2022/02/18 03:42:02;;;;;;;;;;;10.10;99.90;;;9.55;89.59;100339.38;5113998;28;19920;-80
2022/02/18 03:44:32;;;;;;;;;;;9.90;99.90;;;9.69;90.56;100358.59;5112715;28;19920;-80
2022/02/18 03:47:04;;;;;;;;;;;9.80;99.90;;;9.42;91.69;100327.16;5112644;28;19919;-80
2022/02/18 03:49:33;;;;;;;;;;;9.60;99.90;;;9.54;92.42;100379.84;5112162;28;19920;-80
2022/02/18 03:52:03;;;;;;;;;;;9.50;99.90;;;9.42;93.31;100369.41;5129709;27;19926;-80
2022/02/18 03:54:31;;;;;;;;;;;9.40;99.90;;;9.36;93.95;100369.44;5113892;28;19974;-80
2022/02/18 03:56:59;;;;;;;;;;;9.30;99.90;;;9.40;94.30;100350.06;5112175;28;19919;-80
2022/02/18 03:59:31;;;;;;;;;;;9.30;99.90;;;9.55;94.20;100341.13;5112208;28;19934;-80
2022/02/18 04:02:02;;;;;;;;;;;9.40;99.90;;;9.49;93.82;100342.06;5146578;27;19920;-80
2022/02/18 04:04:30;;;;;;;;;;;9.50;99.90;;;9.50;94.23;100325.34;5129529;28;19969;-81
2022/02/18 04:07:17;;;;;;;;;;;9.40;99.90;;;9.45;94.35;100350.88;5115396;28;20400;-80
2022/02/18 04:09:49;;;;;;;;;;;9.40;99.90;;;9.62;94.18;100362.16;5133141;27;20022;-80
2022/02/18 04:12:24;;;;;;;;;;;9.50;99.90;;;9.70;93.62;100370.91;5150750;27;19963;-81
2022/02/18 04:14:58;;;;;;;;;;;9.60;99.90;;;9.87;93.03;100350.47;5133781;27;19920;-81
2022/02/18 04:17:27;;;;;;;;;;;9.70;99.90;;;9.89;92.44;100343.41;5116208;28;19969;-81
2022/02/18 04:20:21;;;;;;;;;;;9.80;99.90;;;9.88;91.62;100320.56;5114789;28;19919;-80
2022/02/18 04:23:24;;;;;;;;;;;9.90;99.90;;;9.97;91.46;100330.13;5115604;28;19977;-80
2022/02/18 04:25:53;;;;;;;;;;;9.90;99.90;;;9.75;91.04;100276.69;5115984;28;19955;-81
2022/02/18 04:28:21;;;;;;;;;;;9.90;99.90;;;9.96;90.76;100308.16;5116958;28;20027;-80
2022/02/18 04:30:51;;;;;;;;;;;9.90;99.90;;;9.82;90.66;100273.06;5116831;28;19924;-80
2022/02/18 04:33:19;;;;;;;;;;;9.90;99.90;;;9.85;90.23;100222.84;5115666;28;20330;-80
2022/02/18 04:35:47;;;;;;;;;;;10.00;99.90;;;10.22;89.73;100277.94;5117322;28;19949;-80
2022/02/18 04:38:15;;;;;;;;;;;10.00;99.90;;;9.97;89.36;100221.81;5116638;28;19919;-80
2022/02/18 04:40:44;;;;;;;;;;;10.10;99.90;;;9.98;89.17;100213.91;5116677;28;20359;-80
2022/02/18 04:43:12;;;;;;;;;;;10.10;99.90;;;10.04;89.51;100245.50;5116599;28;19926;-81
2022/02/18 04:45:40;;;;;;;;;;;10.00;99.90;;;9.70;90.39;100201.03;5116545;28;19926;-80
2022/02/18 04:48:10;;;;;;;;;;;9.80;99.90;;;9.80;90.33;100222.03;5116502;28;19938;-80
2022/02/18 04:50:38;;;;;;;;;;;9.80;99.90;;;9.64;90.81;100225.72;5116512;28;19920;-80
2022/02/18 04:53:26;;;;;;;;;;;9.60;99.90;;;9.66;91.03;100205.47;5116446;28;20012;-80
2022/02/18 04:55:55;;;;;;;;;;;9.60;99.90;;;9.68;90.98;100190.50;5116385;28;20010;-80
2022/02/18 04:58:23;;;;;;;;;;;9.60;99.90;;;9.64;90.45;100183.50;5116352;28;19920;-80
2022/02/18 05:00:51;;;;;;;;;;;9.60;99.90;;;9.48;90.33;100187.22;5116154;28;20296;-80
2022/02/18 05:03:21;;;;;;;;;;;9.60;99.90;;;9.64;90.76;100191.41;5116192;28;19919;-80
2022/02/18 05:05:49;;;;;;;;;;;9.50;99.90;;;9.56;91.11;100173.94;5116097;28;19923;-80
2022/02/18 05:08:17;;;;;;;;;;;9.60;99.90;;;9.64;91.16;100201.97;5116306;28;20250;-80
2022/02/18 05:10:48;;;;;;;;;;;9.60;99.90;;;9.62;91.27;100163.31;5117085;28;19942;-80
2022/02/18 05:13:16;;;;;;;;;;;9.60;99.90;;;9.42;91.38;100139.78;5116215;28;19965;-80
2022/02/18 05:15:47;;;;;;;;;;;9.40;99.90;;;9.49;91.27;100156.41;5116889;28;19920;-80
2022/02/18 05:18:15;;;;;;;;;;;9.40;99.90;;;9.50;91.68;100143.22;5117670;28;19919;-80
2022/02/18 05:20:45;;;;;;;;;;;9.40;99.90;;;9.47;90.40;100118.59;5116450;28;20437;-80
2022/02/18 05:23:13;;;;;;;;;;;9.40;99.90;;;9.63;90.38;100114.88;5115916;27;19920;-80
2022/02/18 05:25:41;;;;;;;;;;;9.50;99.90;;;9.28;89.39;100081.00;5116198;27;19920;-80
2022/02/18 05:28:10;;;;;;;;;;;9.50;99.90;;;9.45;90.52;100093.97;5131869;27;19924;-81
2022/02/18 05:30:38;;;;;;;;;;;9.40;99.90;;;9.54;90.21;100089.44;5115657;28;19947;-80
2022/02/18 05:33:06;;;;;;;;;;;9.50;99.90;;;9.53;90.21;100076.28;5115573;28;19973;-81
2022/02/18 05:35:35;;;;;;;;;;;9.50;99.90;;;9.46;89.60;100091.34;5115541;28;19966;-80
2022/02/18 05:38:04;;;;;;;;;;;9.40;99.90;;;9.07;89.90;99988.94;5115475;28;19920;-81
2022/02/18 05:40:33;;;;;;;;;;;9.40;99.90;;;9.56;89.81;100057.78;5114204;28;20017;-80
2022/02/18 05:43:01;;;;;;;;;;;9.40;99.90;;;9.49;90.06;100054.34;5115602;28;19920;-80
2022/02/18 05:45:30;;;;;;;;;;;9.40;99.90;;;9.27;89.78;100038.81;5115331;28;19924;-80
2022/02/18 05:47:58;;;;;;;;;;;9.40;99.90;;;9.28;90.06;100017.69;5115640;28;19927;-81
2022/02/18 05:50:26;;;;;;;;;;;9.40;99.90;;;9.36;90.20;100004.38;5114216;28;19920;-81
2022/02/18 05:52:54;;;;;;;;;;;9.40;99.90;;;9.32;89.59;100005.31;5115454;28;20287;-80
2022/02/18 05:55:24;;;;;;;;;;;9.30;99.90;;;8.87;90.39;99888.09;5115213;28;19988;-79
2022/02/18 05:57:53;;;;;;;;;;;9.40;99.90;;;9.37;91.08;99985.03;5115422;28;19943;-80
2022/02/18 06:00:21;;;;;;;;;;;9.30;99.90;;;9.27;92.49;99967.56;5115436;28;20013;-79
2022/02/18 06:02:49;;;;;;;;;;;9.20;99.90;;;9.40;92.83;99954.19;5115511;28;20273;-79
2022/02/18 06:05:19;;;;;;;;;;;9.30;99.90;;;9.29;93.44;99968.41;5114696;28;19920;-80
2022/02/18 06:07:47;;;;;;;;;;;9.20;99.90;;;9.17;94.73;99894.72;5114860;28;19920;-81
2022/02/18 06:10:22;;;;;;;;;;;9.20;99.90;;;9.25;95.86;99916.59;5114811;28;19980;-81
2022/02/18 06:12:52;;;;;;;;;;;9.20;99.90;;;8.72;96.38;99814.50;5115443;28;19969;-81
2022/02/18 06:15:21;;;;;;;;;;;9.20;99.90;;;9.15;96.43;99915.84;5115025;28;19981;-81
2022/02/18 06:17:49;;;;;;;;;;;9.20;99.90;;;9.07;96.90;99880.78;5114783;28;19963;-81
2022/02/18 06:20:17;;;;;;;;;;;9.10;99.90;;;9.11;98.73;99887.78;5114736;28;19939;-80
2022/02/18 06:22:45;;;;;;;;;;;9.00;99.90;;;9.16;99.41;99854.28;5114576;28;20011;-81
2022/02/18 06:25:14;;;;;;;;;;;9.10;99.90;;;9.07;100.00;99873.75;5114579;28;19926;-80
2022/02/18 06:27:43;;;;;;;;;;;9.00;99.90;;;8.96;100.00;99856.34;5114524;28;19919;-81
2022/02/18 06:30:15;;;;;;;;;;;9.00;99.90;;;9.03;100.00;99866.78;5113709;28;20291;-80
2022/02/18 06:32:43;;;;;;;;;;;9.00;99.90;;;9.05;100.00;99835.09;5114819;28;20480;-81
2022/02/18 06:35:11;;;;;;;;;;;9.00;99.90;;;9.02;100.00;99827.22;5114393;28;19966;-80
2022/02/18 06:37:40;;;;;;;;;;;9.00;99.90;;;9.17;100.00;99828.78;5114279;28;19923;-81
2022/02/18 06:40:10;;;;;;;;;;;9.10;99.90;;;9.19;100.00;99817.31;5114358;28;19919;-82
2022/02/18 06:42:39;;;;;;;;;;;9.10;99.90;;;9.25;100.00;99838.31;5114361;28;19968;-81
2022/02/18 06:45:08;;;;;;;;;;;9.10;99.90;;;8.84;100.00;99743.13;5114773;28;19973;-81
2022/02/18 06:47:39;;;;;;;;;;;9.10;99.90;;;8.99;100.00;99771.91;5114729;28;19919;-81
2022/02/18 06:50:09;;;;;;;;;;;9.10;99.90;;;9.26;100.00;99792.56;5113910;28;19919;-81
2022/02/18 06:52:38;;;;;;;;;;;9.20;99.90;;;9.18;100.00;99768.06;5114789;28;19919;-79
2022/02/18 06:55:07;;;;;;;;;;;9.20;99.90;;;9.31;100.00;99774.88;5114061;28;19981;-79
2022/02/18 06:57:40;;;;;;;;;;;9.20;99.90;;;9.30;100.00;99796.00;5114583;28;19962;-79
2022/02/18 07:00:10;;;;;;;;;;;9.30;99.90;;;8.89;100.00;99655.16;5113223;28;19926;-82
2022/02/18 07:02:40;;;;;;;;;;;9.30;99.90;;;9.45;100.00;99750.88;5114393;28;19920;-82
2022/02/18 07:05:10;;;;;;;;;;;9.40;99.90;;;9.49;100.00;99748.16;5113737;28;19919;-82
2022/02/18 07:07:41;;;;;;;;;;;9.40;99.90;;;9.59;100.00;99762.06;5114357;28;20026;-82
2022/02/18 07:10:12;;;;;;;;;;;9.40;99.90;;;9.44;100.00;99694.63;5114109;28;19920;-82
2022/02/18 07:12:41;;;;;;;;;;;9.50;99.90;;;9.63;100.00;99719.75;5114282;27;19926;-82
2022/02/18 07:15:10;;;;;;;;;;;9.50;99.90;;;9.65;100.00;99710.03;5112901;28;19919;-82
2022/02/18 07:17:41;;;;;;;;;;;9.50;99.90;;;9.57;100.00;99719.88;5114156;28;20295;-82
2022/02/18 07:20:12;;;;;;;;;;;9.60;99.90;;;9.74;100.00;99701.06;5113871;28;19919;-82
2022/02/18 07:22:42;;;;;;;;;;;9.60;99.90;;;9.82;100.00;99713.22;5113870;28;19923;-82
2022/02/18 07:25:12;;;;;;;;;;;9.60;99.90;;;9.81;100.00;99686.84;5113882;28;19955;-79
2022/02/18 07:27:41;;;;;;;;;;;9.70;99.90;;;9.66;100.00;99651.03;5113864;28;19931;-80
2022/02/18 07:30:11;;;;;;;;;;;9.70;99.90;;;9.86;100.00;99671.75;5129884;28;19926;-80
2022/02/18 07:32:43;;;;;;;;;;;9.70;99.90;;;9.74;100.00;99635.91;5113786;28;19926;-79
2022/02/18 07:35:11;;;;;;;;;;;9.80;99.90;;;9.94;100.00;99681.28;5130033;28;20562;-80
2022/02/18 07:37:42;;;;;;;;;;;9.80;99.90;;;9.78;100.00;99661.38;5113847;28;19941;-79
2022/02/18 07:40:12;;;;;;;;;;;9.80;99.90;;;9.91;100.00;99633.78;5113807;28;20354;-80
2022/02/18 07:42:42;;;;;;;;;;;9.80;99.90;;;10.04;100.00;99647.63;5118266;28;19923;-79
2022/02/18 07:45:11;;;;;;;;;;;9.90;99.90;;;10.09;100.00;99623.72;5117641;28;20404;-82
2022/02/18 07:47:41;;;;;;;;;;;9.90;99.90;;;10.03;100.00;99630.88;5117929;28;19920;-81
2022/02/18 07:50:10;;;;;;;;;;;9.90;99.90;;;10.17;100.00;99612.13;5117590;27;20335;-78
2022/02/18 07:52:39;;;;;;;;;;;10.00;99.90;;;9.89;100.00;99561.66;5117663;28;19926;-77
2022/02/18 07:55:08;;;;;;;;;;;10.00;99.90;;;10.26;100.00;99611.88;5117449;28;19919;-75
2022/02/18 07:57:38;;;;;;;;;;;10.10;99.90;;;10.25;100.00;99614.56;5118113;28;20254;-81
2022/02/18 08:00:07;;;;;;;;;;;10.10;99.90;;;10.29;100.00;99585.41;5120354;28;19926;-81
2022/02/18 08:02:43;;;;;;;;;;;10.10;99.90;;;10.29;100.00;99569.56;5120717;28;19924;-76
2022/02/18 08:05:12;;;;;;;;;;;10.20;99.90;;;10.33;100.00;99560.66;5117760;28;20413;-76
2022/02/18 08:07:40;;;;;;;;;;;10.20;99.90;;;10.47;100.00;99590.22;5117627;28;19980;-71
2022/02/18 08:10:10;;;;;;;;;;;10.30;99.90;;;10.55;100.00;99576.84;5117142;28;20289;-74
2022/02/18 08:12:39;;;;;;;;;;;10.40;99.90;;;10.56;100.00;99568.88;5117256;28;19941;-70
2022/02/18 08:15:08;;;;;;;;;;;10.40;99.90;;;10.45;100.00;99538.34;5117240;28;19919;-71
2022/02/18 08:17:38;;;;;;;;;;;10.40;99.90;;;10.68;100.00;99536.81;5133256;27;19920;-72
2022/02/18 08:20:11;;;;;;;;;;;10.50;99.90;;;10.56;100.00;99516.00;5117082;28;19927;-73
2022/02/18 08:22:40;;;;;;;;;;;10.50;99.90;;;10.76;100.00;99534.00;5117038;28;19920;-72
2022/02/18 08:25:11;;;;;;;;;;;10.60;99.90;;;10.81;100.00;99529.44;5117019;28;19927;-72
2022/02/18 08:27:39;;;;;;;;;;;10.60;99.90;;;10.80;100.00;99535.66;5117015;28;20021;-71
2022/02/18 08:30:08;;;;;;;;;;;10.70;99.90;;;10.86;100.00;99509.88;5116805;27;20021;-71
2022/02/18 08:32:42;;;;;;;;;;;10.70;99.90;;;10.78;100.00;99493.34;5116890;28;20292;-74
2022/02/18 08:35:12;;;;;;;;;;;10.70;99.90;;;10.90;100.00;99515.94;5116779;28;19919;-74
2022/02/18 08:37:41;;;;;;;;;;;10.80;99.90;;;10.99;100.00;99506.91;5117042;28;19919;-71
2022/02/18 08:40:14;;;;;;;;;;;10.80;99.90;;;11.00;100.00;99490.09;5116883;28;19923;-74
2022/02/18 08:42:42;;;;;;;;;;;10.80;99.90;;;11.05;100.00;99489.09;5116670;28;19982;-73
2022/02/18 08:45:11;;;;;;;;;;;10.80;99.90;;;10.89;100.00;99456.91;5116550;28;19924;-73
2022/02/18 08:47:40;;;;;;;;;;;10.90;99.90;;;10.68;100.00;99409.03;5116485;28;19920;-73
2022/02/18 08:50:10;;;;;;;;;;;10.90;99.90;;;11.15;100.00;99468.53;5116360;28;19923;-75
2022/02/18 08:52:42;;;;;;;;;;;11.00;99.90;;;11.24;100.00;99478.81;5115831;28;19982;-73
2022/02/18 08:55:12;;;;;;;;;;;11.00;99.90;;;11.29;100.00;99448.66;5116645;28;19920;-73
2022/02/18 08:57:43;;;;;;;;;;;11.10;99.90;;;11.22;100.00;99470.94;5116261;28;19926;-71
2022/02/18 09:00:12;;;;;;;;;;;11.10;99.90;;;11.41;100.00;99445.66;5116173;28;19919;-73
2022/02/18 09:02:41;;;;;;;;;;;11.20;99.90;;;10.43;100.00;99244.13;5115654;28;19924;-76
2022/02/18 09:05:11;;;;;;;;;;;11.30;99.90;;;11.04;100.00;99323.31;5115867;28;20011;-71
2022/02/18 09:07:44;;;;;;;;;;;11.30;99.90;;;11.35;100.00;99362.91;5132540;27;19926;-72
2022/02/18 09:10:13;;;;;;;;;;;11.40;99.90;;;11.47;100.00;99378.41;5115968;28;19926;-73
2022/02/18 09:12:41;;;;;;;;;;;11.50;99.90;;;11.46;100.00;99369.59;5115933;28;19920;-71
2022/02/18 09:15:13;;;;;;;;;;;11.50;99.90;;;11.44;100.00;99355.53;5116523;27;19927;-73
2022/02/18 09:17:54;;;;;;;;;;;11.50;99.90;;;11.75;100.00;99388.06;5116556;28;19923;-73
2022/02/18 09:20:22;;;;;;;;;;;11.50;99.90;;;11.85;100.00;99363.91;5116080;28;19919;-74
2022/02/18 09:22:52;;;;;;;;;;;11.60;99.90;;;11.79;100.00;99334.09;5115787;28;19920;-70
2022/02/18 09:25:20;;;;;;;;;;;11.60;99.90;;;11.82;100.00;99354.31;5114872;28;20343;-73
2022/02/18 09:27:49;;;;;;;;;;;11.70;99.90;;;11.79;100.00;99336.72;5114716;28;19919;-73
2022/02/18 09:30:17;;;;;;;;;;;11.70;99.90;;;11.96;100.00;99352.06;5115764;28;20034;-72
2022/02/18 09:33:05;;;;;;;;;;;11.70;99.90;;;11.99;100.00;99346.66;5115938;28;19923;-75
2022/02/18 09:35:34;;;;;;;;;;;11.80;99.90;;;11.79;100.00;99314.66;5131422;27;19958;-70
2022/02/18 09:38:03;;;;;;;;;;;11.80;99.90;;;12.08;100.00;99338.38;5115729;28;20380;-74
2022/02/18 09:40:32;;;;;;;;;;;11.90;99.90;;;11.92;100.00;99301.88;5131231;27;20003;-71
2022/02/18 09:43:00;;;;;;;;;;;11.90;99.90;;;11.98;100.00;99333.47;5115399;28;19920;-74
2022/02/18 09:45:29;;;;;;;;;;;11.80;99.90;;;12.12;100.00;99312.63;5115804;28;19976;-73
2022/02/18 09:47:58;;;;;;;;;;;11.90;99.90;;;12.06;100.00;99287.22;5115298;28;19958;-73
2022/02/18 09:50:27;;;;;;;;;;;11.90;99.90;;;11.89;100.00;99272.81;5115159;28;19972;-75
2022/02/18 09:53:17;;;;;;;;;;;11.80;99.90;;;12.09;100.00;99286.25;5115267;28;19920;-74
2022/02/18 09:55:45;;;;;;;;;;;11.90;99.90;;;12.03;100.00;99303.22;5113857;28;19920;-75
2022/02/18 09:58:16;;;;;;;;;;;11.80;99.90;;;12.05;100.00;99305.81;5115099;28;19924;-76
2022/02/18 10:00:44;;;;;;;;;;;11.80;99.90;;;12.07;100.00;99312.81;5115282;28;19928;-76
2022/02/18 10:03:13;;;;;;;;;;;11.80;99.90;;;12.11;100.00;99279.97;5115317;28;20010;-77
2022/02/18 10:05:44;;;;;;;;;;;11.90;99.90;;;11.96;100.00;99247.88;5114763;28;19962;-73
2022/02/18 10:08:14;;;;;;;;;;;11.90;99.90;;;12.06;100.00;99254.56;5113973;28;20365;-76
2022/02/18 10:10:58;;;;;;;;;;;11.90;99.90;;;12.14;100.00;99268.38;5114907;28;19926;-76
2022/02/18 10:13:34;;;;;;;;;;;11.90;99.90;;;12.11;100.00;99253.47;5113917;28;19926;-77
2022/02/18 10:16:12;;;;;;;;;;;11.90;99.90;;;12.08;100.00;99279.22;5114830;28;19920;-76
2022/02/18 10:18:49;;;;;;;;;;;11.90;99.90;;;11.94;100.00;99244.41;5115361;28;19919;-74
2022/02/18 10:21:17;;;;;;;;;;;11.90;99.90;;;12.10;100.00;99229.69;5115074;28;19926;-77
2022/02/18 10:23:46;;;;;;;;;;;11.90;99.90;;;11.97;100.00;99208.06;5115154;28;19920;-78
2022/02/18 10:26:16;;;;;;;;;;;11.90;99.90;;;12.01;100.00;99241.47;5113743;28;19923;-72
2022/02/18 10:28:56;;;;;;;;;;;11.90;99.90;;;12.14;100.00;99216.25;5114881;28;19923;-75
2022/02/18 10:31:25;;;;;;;;;;;11.90;99.90;;;12.09;100.00;99220.00;5113443;28;19967;-74
2022/02/18 10:34:04;;;;;;;;;;;11.80;99.90;;;12.07;100.00;99211.22;5114717;28;19920;-74
2022/02/18 10:36:37;;;;;;;;;;;11.80;99.90;;;12.15;100.00;99212.69;5114779;28;19965;-73
2022/02/18 10:39:24;;;;;;;;;;;11.90;99.90;;;12.03;100.00;99180.47;5114575;28;19981;-74
2022/02/18 10:41:57;;;;;;;;;;;11.90;99.90;;;11.63;100.00;99068.03;5114334;28;19924;-73
2022/02/18 10:44:27;;;;;;;;;;;12.00;99.90;;;12.14;100.00;99183.56;5114484;28;19924;-73
2022/02/18 10:47:05;;;;;;;;;;;12.00;99.90;;;12.17;100.00;99199.38;5114305;28;19972;-73
2022/02/18 10:49:38;;;;;;;;;;;12.00;99.90;;;12.18;100.00;99138.34;5114330;28;19919;-72
2022/02/18 10:52:12;;;;;;;;;;;12.00;99.90;;;12.26;100.00;99161.91;5114317;28;19928;-75
2022/02/18 10:54:40;;;;;;;;;;;12.00;99.90;;;12.15;100.00;99156.16;5114278;28;19968;-75
2022/02/18 10:57:21;;;;;;;;;;;12.00;99.90;;;12.22;100.00;99142.63;5114049;28;19920;-75
2022/02/18 10:59:50;;;;;;;;;;;12.00;99.90;;;12.23;100.00;99127.56;5114363;28;20006;-72
2022/02/18 11:02:40;;;;;;;;;;;12.00;99.90;;;12.04;100.00;99092.97;5114274;28;19949;-71
2022/02/18 11:05:23;;;;;;;;;;;12.00;99.90;;;12.27;100.00;99135.34;5114086;28;20314;-71
2022/02/18 11:07:56;;;;;;;;;;;12.00;99.90;;;12.31;100.00;99122.84;5114288;28;19985;-73
2022/02/18 11:10:32;;;;;;;;;;;12.10;99.90;;;12.31;100.00;99122.84;5113978;28;20167;-72
2022/02/18 11:13:02;;;;;;;;;;;12.10;99.90;;;12.25;100.00;99141.63;5113798;28;20034;-67
2022/02/18 11:15:32;;;;;;;;;;;12.00;99.90;;;11.82;100.00;99117.69;5113609;28;20369;-72
2022/02/18 11:18:00;;;;;;;;;;;11.70;99.90;;;11.50;100.00;99145.31;5114122;28;19954;-72
2022/02/18 11:20:28;;;;;;;;;;;11.40;99.90;;;11.44;100.00;99119.91;5113888;28;19924;-77
2022/02/18 11:22:58;;;;;;;;;;;11.30;99.90;;;11.30;100.00;99140.75;5113817;27;20460;-78
2022/02/18 11:25:27;;;;;;;;;;;11.10;99.90;;;11.15;98.73;99141.25;5113740;28;19972;-72
2022/02/18 11:28:00;;;;;;;;;;;11.00;99.90;;;11.16;98.47;99148.28;5113882;28;19962;-72
2022/02/18 11:30:29;;;;;;;;;;;11.00;99.90;;;11.16;98.03;99134.19;5113740;28;19927;-70